createdAt,value
2019-05-22T00:00:26.054Z,78.83
2019-05-22T00:02:59.819Z,79.89
2019-05-22T00:05:33.575Z,80.67
2019-05-22T00:08:07.291Z,80.93
2019-05-22T00:10:41.029Z,80.19
2019-05-22T00:13:14.877Z,81.16
2019-05-22T00:15:48.587Z,81.16
2019-05-22T00:18:22.292Z,80.87
2019-05-22T00:20:56.011Z,80.83
2019-05-22T00:23:29.719Z,80.83
2019-05-22T00:26:03.436Z,81.14
2019-05-22T00:28:37.187Z,81.14
2019-05-22T00:31:11.271Z,80.84
2019-05-22T00:33:45.064Z,80.95
2019-05-22T00:36:18.958Z,80.95
2019-05-22T00:38:53.152Z,81.60
2019-05-22T00:41:27.320Z,81.48
2019-05-22T00:44:01.040Z,80.49
2019-05-22T00:46:34.735Z,80.49
2019-05-22T00:49:08.834Z,79.20
2019-05-22T00:51:42.906Z,80.64
2019-05-22T00:54:16.611Z,80.64
2019-05-22T00:56:50.327Z,79.65
2019-05-22T00:59:25.023Z,80.83
2019-05-22T01:01:58.948Z,80.83
2019-05-22T01:04:33.105Z,80.81
2019-05-22T01:07:06.886Z,79.64
2019-05-22T01:09:40.602Z,78.96
2019-05-22T01:12:18.825Z,80.59
2019-05-22T01:14:52.608Z,80.95
2019-05-22T01:17:27.176Z,80.95
2019-05-22T01:20:01.414Z,81.67
2019-05-22T01:22:36.700Z,82.32
2019-05-22T01:25:11.283Z,81.82
2019-05-22T01:27:45.069Z,81.74
2019-05-22T01:30:18.782Z,81.19
2019-05-22T01:32:52.503Z,80.17
2019-05-22T01:35:28.355Z,80.17
2019-05-22T01:38:02.087Z,80.12
2019-05-22T01:40:43.747Z,81.37
2019-05-22T01:43:17.456Z,81.37
2019-05-22T01:45:51.176Z,81.60
2019-05-22T01:48:33.796Z,82.08
2019-05-22T01:51:07.789Z,82.48
2019-05-22T01:53:41.515Z,82.48
2019-05-22T01:56:15.237Z,81.83
2019-05-22T01:58:48.949Z,81.77
2019-05-22T02:01:22.829Z,82.43
2019-05-22T02:03:56.527Z,82.22
2019-05-22T02:06:30.252Z,82.18
2019-05-22T02:09:19.242Z,82.25
2019-05-22T02:11:56.297Z,82.94
2019-05-22T02:14:30.024Z,83.08
2019-05-22T02:17:03.777Z,82.81
2019-05-22T02:19:37.487Z,82.53
2019-05-22T02:22:11.509Z,82.76
2019-05-22T02:24:46.069Z,82.76
2019-05-22T02:27:19.793Z,82.82
2019-05-22T02:29:53.498Z,82.82
2019-05-22T02:32:27.238Z,82.23
2019-05-22T02:35:00.940Z,82.41
2019-05-22T02:37:34.747Z,82.41
2019-05-22T02:40:14.508Z,82.33
2019-05-22T02:42:48.237Z,82.33
2019-05-22T02:45:21.970Z,82.76
2019-05-22T02:47:55.684Z,82.27
2019-05-22T02:50:29.418Z,82.17
2019-05-22T02:53:03.293Z,82.14
2019-05-22T02:55:37.670Z,82.14
2019-05-22T02:58:11.378Z,82.34
2019-05-22T03:00:56.019Z,83.04
2019-05-22T03:03:30.705Z,83.04
2019-05-22T03:06:10.791Z,82.67
2019-05-22T03:08:56.490Z,82.23
2019-05-22T03:11:36.111Z,82.53
2019-05-22T03:14:09.918Z,82.19
2019-05-22T03:16:49.071Z,82.19
2019-05-22T03:19:41.275Z,83.44
2019-05-22T03:22:29.588Z,83.05
2019-05-22T03:25:03.424Z,80.74
2019-05-22T03:27:38.377Z,80.91
2019-05-22T03:30:24.755Z,80.91
2019-05-22T03:32:59.728Z,80.84
2019-05-22T03:35:41.480Z,81.02
2019-05-22T03:38:16.125Z,81.73
2019-05-22T03:40:50.853Z,81.82
2019-05-22T03:43:24.783Z,81.87
2019-05-22T03:45:58.570Z,81.83
2019-05-22T03:48:33.919Z,81.58
2019-05-22T03:51:11.381Z,82.08
2019-05-22T03:53:45.481Z,82.72
2019-05-22T03:56:19.202Z,82.43
2019-05-22T03:58:52.987Z,81.51
2019-05-22T04:01:27.564Z,81.12
2019-05-22T04:04:02.435Z,81.12
2019-05-22T04:06:36.582Z,81.98
2019-05-22T04:09:17.857Z,82.23
2019-05-22T04:11:51.553Z,81.90
2019-05-22T04:14:32.923Z,81.90
2019-05-22T04:17:06.921Z,82.97
2019-05-22T04:19:49.574Z,82.97
2019-05-22T04:22:16.234Z,83.23
2019-05-22T04:24:49.943Z,83.23
2019-05-22T04:27:23.633Z,83.65
2019-05-22T04:29:57.359Z,82.95
2019-05-22T04:32:31.095Z,82.95
2019-05-22T04:35:06.732Z,82.97
2019-05-22T04:37:41.381Z,82.97
2019-05-22T04:40:24.398Z,82.89
2019-05-22T04:42:58.109Z,83.09
2019-05-22T04:45:31.820Z,83.09
2019-05-22T04:48:05.535Z,84.28
2019-05-22T04:50:39.317Z,84.22
2019-05-22T04:53:13.682Z,84.22
2019-05-22T04:55:47.580Z,83.13
2019-05-22T04:58:21.285Z,83.39
2019-05-22T05:00:55.077Z,83.44
2019-05-22T05:03:28.787Z,84.10
2019-05-22T05:06:05.988Z,82.63
2019-05-22T05:08:37.982Z,82.63
2019-05-22T05:11:11.700Z,83.97
2019-05-22T05:13:45.431Z,83.20
2019-05-22T05:16:19.132Z,83.20
2019-05-22T05:18:52.841Z,82.99
2019-05-22T05:21:26.590Z,81.71
2019-05-22T05:24:00.285Z,82.04
2019-05-22T05:26:34.004Z,82.04
2019-05-22T05:29:10.427Z,82.33
2019-05-22T05:31:44.133Z,82.09
2019-05-22T05:34:32.669Z,81.47
2019-05-22T05:37:06.385Z,81.69
2019-05-22T05:39:52.342Z,81.68
2019-05-22T05:42:26.047Z,81.24
2019-05-22T05:44:59.934Z,79.57
2019-05-22T05:47:33.836Z,79.57
2019-05-22T05:50:08.482Z,79.05
2019-05-22T05:52:42.201Z,78.61
2019-05-22T05:55:16.939Z,77.78
2019-05-22T05:57:54.583Z,78.04
2019-05-22T06:00:28.326Z,78.04
2019-05-22T06:03:11.059Z,78.19
2019-05-22T06:05:44.788Z,78.26
2019-05-22T06:08:18.498Z,78.26
2019-05-22T06:11:02.380Z,78.71
2019-05-22T06:13:36.132Z,78.21
2019-05-22T06:16:13.121Z,78.21
2019-05-22T06:18:46.893Z,79.39
2019-05-22T06:21:20.613Z,79.75
2019-05-22T06:24:20.307Z,80.45
2019-05-22T06:26:56.450Z,79.08
2019-05-22T06:29:53.643Z,78.86
2019-05-22T06:33:05.820Z,79.57
2019-05-22T06:35:39.558Z,78.75
2019-05-22T06:38:36.187Z,78.38
2019-05-22T06:41:09.904Z,79.85
2019-05-22T06:43:46.904Z,78.91
2019-05-22T06:46:42.381Z,78.91
2019-05-22T06:49:31.176Z,78.79
2019-05-22T06:52:05.565Z,78.79
2019-05-22T06:54:39.282Z,79.49
2019-05-22T06:57:13.214Z,80.21
2019-05-22T06:59:46.995Z,78.59
2019-05-22T07:02:20.725Z,77.85
2019-05-22T07:04:54.457Z,75.94
2019-05-22T07:07:28.148Z,77.45
2019-05-22T07:10:01.919Z,77.45
2019-05-22T07:12:35.666Z,77.80
2019-05-22T07:15:20.272Z,77.34
2019-05-22T07:17:53.990Z,76.49
2019-05-22T07:20:28.245Z,76.44
2019-05-22T07:23:05.522Z,76.44
2019-05-22T07:25:39.241Z,75.69
2019-05-22T07:28:14.054Z,75.69
2019-05-22T07:30:47.788Z,74.89
2019-05-22T07:33:21.499Z,75.49
2019-05-22T07:38:39.279Z,73.11
2019-05-22T07:41:14.135Z,73.18
2019-05-22T07:43:49.021Z,73.05
2019-05-22T07:46:22.819Z,73.71
2019-05-22T07:48:56.553Z,74.37
2019-05-22T07:51:30.255Z,74.05
2019-05-22T07:54:04.549Z,73.73
2019-05-22T07:56:38.431Z,72.50
2019-05-22T07:59:13.099Z,72.50
2019-05-22T08:01:46.826Z,73.02
2019-05-22T08:04:20.537Z,73.02
2019-05-22T08:06:54.258Z,72.49
2019-05-22T08:09:28.010Z,72.49
2019-05-22T08:12:01.703Z,71.65
2019-05-22T08:14:35.417Z,71.65
2019-05-22T08:17:09.229Z,71.13
2019-05-22T08:19:42.969Z,70.81
2019-05-22T08:22:36.949Z,70.76
2019-05-22T08:25:10.658Z,70.76
2019-05-22T08:27:44.425Z,69.31
2019-05-22T08:30:18.149Z,70.23
2019-05-22T08:32:52.125Z,68.87
2019-05-22T08:35:25.850Z,68.11
2019-05-22T08:37:59.609Z,68.64
2019-05-22T08:40:33.330Z,68.63
2019-05-22T08:43:07.025Z,69.56
2019-05-22T08:45:40.853Z,69.56
2019-05-22T08:48:15.022Z,67.76
2019-05-22T08:50:49.339Z,66.60
2019-05-22T08:53:23.129Z,66.60
2019-05-22T08:55:57.847Z,67.81
2019-05-22T08:58:31.544Z,69.08
2019-05-22T09:01:05.354Z,68.91
2019-05-22T09:03:39.046Z,70.06
2019-05-22T09:06:13.509Z,70.06
2019-05-22T09:08:47.235Z,70.80
2019-05-22T09:11:20.965Z,69.97
2019-05-22T09:13:54.689Z,69.87
2019-05-22T09:16:28.412Z,70.12
2019-05-22T09:19:02.221Z,69.74
2019-05-22T09:21:35.937Z,69.54
2019-05-22T09:24:12.580Z,69.54
2019-05-22T09:26:46.586Z,69.99
2019-05-22T09:29:20.290Z,69.98
2019-05-22T09:31:54.004Z,69.23
2019-05-22T09:34:27.747Z,68.91
2019-05-22T09:37:01.457Z,68.78
2019-05-22T09:39:35.147Z,67.97
2019-05-22T09:42:08.860Z,67.97
2019-05-22T09:44:42.592Z,67.91
2019-05-22T09:47:16.545Z,67.82
2019-05-22T09:49:50.352Z,67.88
2019-05-22T09:52:24.096Z,67.88
2019-05-22T09:54:57.847Z,68.23
2019-05-22T09:57:31.689Z,67.99
2019-05-22T10:00:08.774Z,67.99
2019-05-22T10:02:42.844Z,67.67
2019-05-22T10:05:16.684Z,67.67
2019-05-22T10:08:00.285Z,66.95
2019-05-22T10:10:25.833Z,66.38
2019-05-22T10:12:59.640Z,66.88
2019-05-22T10:15:33.351Z,66.75
2019-05-22T10:18:07.060Z,66.75
2019-05-22T10:20:40.840Z,66.28
2019-05-22T10:23:16.100Z,66.28
2019-05-22T10:25:49.961Z,64.36
2019-05-22T10:28:23.662Z,65.52
2019-05-22T10:30:58.322Z,65.52
2019-05-22T10:33:32.505Z,64.58
2019-05-22T10:36:07.002Z,63.93
2019-05-22T10:38:41.018Z,62.95
2019-05-22T10:41:14.807Z,63.98
2019-05-22T10:43:48.612Z,63.30
2019-05-22T10:46:22.304Z,63.20
2019-05-22T10:48:56.018Z,63.71
2019-05-22T10:51:30.013Z,63.71
2019-05-22T10:54:03.909Z,63.67
2019-05-22T10:56:37.623Z,63.67
2019-05-22T10:59:11.340Z,62.48
2019-05-22T11:01:45.059Z,61.34
2019-05-22T11:04:19.637Z,62.43
2019-05-22T11:06:54.615Z,62.24
2019-05-22T11:09:28.330Z,63.14
2019-05-22T11:12:02.300Z,60.83
2019-05-22T11:14:36.018Z,60.99
2019-05-22T11:17:09.709Z,58.03
2019-05-22T11:19:44.017Z,59.01
2019-05-22T11:22:17.883Z,57.25
2019-05-22T11:24:51.661Z,56.76
2019-05-22T11:27:25.400Z,56.10
2019-05-22T11:29:59.193Z,56.10
2019-05-22T11:32:34.764Z,56.36
2019-05-22T11:35:13.548Z,56.04
2019-05-22T11:37:47.247Z,56.81
2019-05-22T11:40:20.956Z,56.38
2019-05-22T11:42:54.732Z,55.47
2019-05-22T11:45:28.502Z,55.66
2019-05-22T11:48:02.214Z,55.66
2019-05-22T11:50:35.921Z,55.84
2019-05-22T11:53:09.642Z,55.01
2019-05-22T11:55:45.951Z,55.15
2019-05-22T11:58:18.867Z,54.66
2019-05-22T12:00:52.568Z,55.35
2019-05-22T12:03:26.290Z,53.06
2019-05-22T12:06:00.143Z,53.06
2019-05-22T12:08:33.842Z,52.84
2019-05-22T12:11:07.931Z,51.71
2019-05-22T12:13:41.659Z,51.71
2019-05-22T12:16:15.657Z,52.66
2019-05-22T12:18:49.350Z,52.66
2019-05-22T12:21:23.067Z,53.13
2019-05-22T12:23:56.791Z,51.59
2019-05-22T12:26:30.514Z,51.59
2019-05-22T12:29:04.221Z,52.45
2019-05-22T12:31:37.948Z,52.45
2019-05-22T12:34:11.660Z,49.41
2019-05-22T12:36:45.370Z,50.30
2019-05-22T12:39:19.318Z,49.70
2019-05-22T12:41:53.256Z,49.70
2019-05-22T12:44:26.966Z,49.01
2019-05-22T12:47:00.677Z,48.80
2019-05-22T12:49:34.396Z,49.87
2019-05-22T12:52:08.101Z,48.98
2019-05-22T12:54:47.344Z,50.42
2019-05-22T12:57:17.297Z,50.42
2019-05-22T12:59:51.852Z,49.40
2019-05-22T13:02:25.569Z,49.46
2019-05-22T13:04:59.296Z,48.37
2019-05-22T13:07:33.007Z,49.09
2019-05-22T13:10:06.709Z,48.25
2019-05-22T13:12:40.429Z,50.02
2019-05-22T13:15:14.195Z,50.02
2019-05-22T13:17:47.910Z,47.35
2019-05-22T13:20:40.488Z,47.37
2019-05-22T13:22:58.177Z,47.37
2019-05-22T13:25:33.025Z,47.71
2019-05-22T13:28:07.275Z,47.55
2019-05-22T13:30:40.978Z,48.33
2019-05-22T13:33:14.842Z,48.33
2019-05-22T13:35:48.907Z,46.30
2019-05-22T13:38:22.612Z,46.71
2019-05-22T13:40:56.360Z,45.85
2019-05-22T13:43:30.420Z,45.94
2019-05-22T13:46:04.276Z,45.94
2019-05-22T13:48:37.965Z,44.86
2019-05-22T13:51:11.691Z,43.39
2019-05-22T13:53:45.589Z,44.31
2019-05-22T13:56:19.277Z,42.92
2019-05-22T13:58:52.985Z,41.77
2019-05-22T14:01:27.065Z,41.77
2019-05-22T14:04:00.783Z,41.10
2019-05-22T14:06:34.809Z,41.10
2019-05-22T14:09:11.917Z,41.80
2019-05-22T14:11:45.688Z,40.44
2019-05-22T14:14:19.424Z,42.72
2019-05-22T14:16:53.133Z,40.33
2019-05-22T14:19:26.944Z,40.33
2019-05-22T14:22:00.623Z,40.05
2019-05-22T14:24:34.346Z,40.05
2019-05-22T14:27:08.010Z,41.78
2019-05-22T14:29:41.717Z,42.40
2019-05-22T14:32:15.444Z,38.50
2019-05-22T14:34:49.150Z,36.31
2019-05-22T14:37:22.833Z,37.24
2019-05-22T14:39:56.522Z,37.24
2019-05-22T14:42:30.414Z,38.89
2019-05-22T14:45:05.367Z,38.89
2019-05-22T14:47:39.039Z,39.18
2019-05-22T14:50:13.847Z,39.18
2019-05-22T14:52:47.552Z,40.26
2019-05-22T14:55:21.323Z,39.43
2019-05-22T14:57:55.899Z,41.60
2019-05-22T15:00:29.593Z,42.02
2019-05-22T15:03:03.505Z,39.99
2019-05-22T15:05:37.310Z,41.35
2019-05-22T15:08:11.006Z,39.95
2019-05-22T15:10:45.041Z,39.95
2019-05-22T15:13:18.756Z,40.41
2019-05-22T15:15:52.464Z,41.14
2019-05-22T15:18:26.264Z,39.78
2019-05-22T15:21:00.027Z,39.78
2019-05-22T15:23:33.746Z,41.37
2019-05-22T15:26:07.459Z,42.48
2019-05-22T15:28:41.168Z,42.69
2019-05-22T15:31:14.860Z,42.69
2019-05-22T15:33:48.619Z,42.34
2019-05-22T15:36:22.323Z,42.34
2019-05-22T15:38:56.059Z,40.80
2019-05-22T15:41:30.021Z,40.80
2019-05-22T15:44:03.704Z,40.60
2019-05-22T15:46:37.406Z,40.60
2019-05-22T15:49:11.145Z,41.37
2019-05-22T15:51:44.844Z,40.57
2019-05-22T15:54:18.554Z,38.81
2019-05-22T15:56:52.434Z,38.81
2019-05-22T15:59:26.151Z,39.03
2019-05-22T16:01:59.865Z,41.36
2019-05-22T16:04:33.573Z,42.41
2019-05-22T16:07:07.468Z,42.88
2019-05-22T16:09:41.171Z,43.38
2019-05-22T16:12:15.454Z,42.88
2019-05-22T16:14:49.160Z,42.88
2019-05-22T16:17:22.886Z,42.15
2019-05-22T16:19:56.572Z,42.87
2019-05-22T16:22:30.308Z,42.05
2019-05-22T16:25:05.613Z,43.08
2019-05-22T16:27:39.797Z,42.65
2019-05-22T16:30:13.490Z,43.77
2019-05-22T16:32:47.380Z,43.98
2019-05-22T16:35:21.158Z,43.08
2019-05-22T16:37:55.126Z,41.39
2019-05-22T16:40:28.831Z,42.01
2019-05-22T16:43:02.546Z,42.01
2019-05-22T16:45:36.251Z,41.67
2019-05-22T16:48:09.969Z,41.54
2019-05-22T16:50:43.680Z,42.87
2019-05-22T16:53:17.406Z,44.38
2019-05-22T16:55:51.197Z,43.53
2019-05-22T16:58:25.079Z,42.87
2019-05-22T17:00:58.823Z,42.87
2019-05-22T17:03:32.911Z,44.31
2019-05-22T17:06:06.615Z,44.31
2019-05-22T17:08:40.337Z,44.14
2019-05-22T17:11:14.093Z,44.62
2019-05-22T17:13:47.940Z,43.86
2019-05-22T17:16:21.616Z,43.86
2019-05-22T17:18:55.345Z,45.20
2019-05-22T17:21:29.067Z,46.18
2019-05-22T17:24:03.096Z,46.19
2019-05-22T17:26:36.999Z,45.69
2019-05-22T17:29:10.689Z,45.69
2019-05-22T17:31:44.425Z,47.37
2019-05-22T17:34:18.151Z,47.37
2019-05-22T17:36:51.828Z,46.27
2019-05-22T17:39:25.568Z,46.72
2019-05-22T17:41:59.294Z,49.34
2019-05-22T17:44:34.015Z,49.34
2019-05-22T17:47:08.953Z,48.72
2019-05-22T17:49:42.699Z,48.72
2019-05-22T17:52:17.437Z,48.79
2019-05-22T17:54:51.172Z,48.19
2019-05-22T17:57:24.853Z,49.97
2019-05-22T17:59:58.585Z,48.09
2019-05-22T18:02:32.310Z,48.60
2019-05-22T18:05:16.469Z,48.74
2019-05-22T18:07:50.212Z,48.74
2019-05-22T18:10:23.969Z,49.17
2019-05-22T18:12:57.744Z,49.17
2019-05-22T18:15:31.741Z,48.93
2019-05-22T18:18:05.529Z,49.69
2019-05-22T18:20:43.439Z,49.69
2019-05-22T18:23:14.671Z,49.81
2019-05-22T18:25:48.396Z,49.79
2019-05-22T18:28:22.145Z,49.64
2019-05-22T18:30:55.933Z,48.65
2019-05-22T18:33:29.676Z,48.87
2019-05-22T18:36:03.431Z,48.87
2019-05-22T18:38:37.356Z,50.09
2019-05-22T18:41:14.724Z,49.96
2019-05-22T18:43:48.484Z,49.96
2019-05-22T18:46:22.261Z,49.67
2019-05-22T18:48:56.008Z,49.80
2019-05-22T18:51:29.906Z,49.17
2019-05-22T18:54:03.639Z,50.41
2019-05-22T18:56:37.368Z,51.65
2019-05-22T18:59:11.142Z,51.65
2019-05-22T19:01:44.901Z,52.54
2019-05-22T19:04:18.656Z,51.31
2019-05-22T19:06:55.765Z,52.08
2019-05-22T19:09:28.281Z,52.08
2019-05-22T19:12:02.048Z,52.56
2019-05-22T19:14:35.769Z,52.52
2019-05-22T19:17:09.496Z,52.52
2019-05-22T19:19:43.214Z,53.18
2019-05-22T19:22:16.969Z,53.18
2019-05-22T19:24:50.686Z,52.23
2019-05-22T19:27:24.464Z,51.90
2019-05-22T19:29:58.191Z,52.31
2019-05-22T19:32:31.895Z,52.01
2019-05-22T19:35:07.375Z,52.01
2019-05-22T19:37:41.259Z,51.95
2019-05-22T19:40:15.105Z,52.58
2019-05-22T19:42:48.838Z,52.26
2019-05-22T19:45:22.591Z,53.16
2019-05-22T19:47:56.336Z,53.16
2019-05-22T19:50:30.074Z,52.92
2019-05-22T19:53:18.147Z,53.07
2019-05-22T19:55:39.315Z,54.43
2019-05-22T19:58:13.269Z,54.43
2019-05-22T20:00:47.014Z,55.33
2019-05-22T20:03:21.364Z,55.45
2019-05-22T20:05:57.919Z,55.39
2019-05-22T20:08:31.668Z,55.39
2019-05-22T20:11:05.411Z,56.45
2019-05-22T20:13:39.765Z,56.11
2019-05-22T20:16:13.467Z,55.51
2019-05-22T20:18:47.204Z,55.51
2019-05-22T20:21:20.927Z,54.91
2019-05-22T20:23:54.681Z,54.91
2019-05-22T20:26:28.424Z,54.80
2019-05-22T20:29:02.515Z,54.80
2019-05-22T20:31:36.315Z,52.60
2019-05-22T20:34:10.057Z,53.55
2019-05-22T20:36:43.778Z,51.45
2019-05-22T20:39:17.521Z,51.66
2019-05-22T20:41:51.235Z,51.44
2019-05-22T20:44:24.948Z,51.59
2019-05-22T20:46:58.649Z,51.46
2019-05-22T20:49:32.387Z,52.09
2019-05-22T20:52:06.159Z,51.62
2019-05-22T20:54:39.869Z,51.85
2019-05-22T20:57:13.602Z,52.44
2019-05-22T20:59:47.575Z,52.38
2019-05-22T21:02:21.317Z,52.38
2019-05-22T21:04:55.197Z,52.74
2019-05-22T21:07:31.724Z,52.92
2019-05-22T21:10:05.917Z,52.92
2019-05-22T21:12:39.650Z,54.27
2019-05-22T21:15:13.711Z,54.27
2019-05-22T21:17:47.709Z,52.03
2019-05-22T21:20:21.442Z,53.14
2019-05-22T21:22:55.332Z,53.22
2019-05-22T21:25:29.109Z,53.22
2019-05-22T21:28:02.796Z,53.30
2019-05-22T21:30:36.519Z,53.09
2019-05-22T21:33:10.217Z,53.40
2019-05-22T21:35:43.954Z,53.20
2019-05-22T21:38:17.658Z,53.23
2019-05-22T21:40:52.361Z,54.05
2019-05-22T21:43:26.398Z,53.23
2019-05-22T21:46:00.190Z,53.30
2019-05-22T21:48:33.937Z,53.08
2019-05-22T21:51:07.636Z,53.78
2019-05-22T21:53:41.357Z,53.78
2019-05-22T21:56:15.143Z,53.66
2019-05-22T21:58:48.843Z,53.88
2019-05-22T22:01:22.560Z,53.88
2019-05-22T22:03:57.120Z,54.82
2019-05-22T22:06:33.158Z,54.82
2019-05-22T22:09:06.288Z,55.20
2019-05-22T22:11:39.985Z,55.20
2019-05-22T22:14:14.259Z,55.23
2019-05-22T22:16:47.986Z,56.35
2019-05-22T22:19:21.668Z,55.56
2019-05-22T22:21:55.391Z,55.56
2019-05-22T22:24:29.094Z,55.58
2019-05-22T22:27:02.856Z,55.16
2019-05-22T22:29:36.571Z,55.28
2019-05-22T22:32:10.638Z,55.28
2019-05-22T22:34:45.513Z,55.18
2019-05-22T22:37:19.239Z,56.04
2019-05-22T22:39:53.335Z,55.88
2019-05-22T22:42:27.188Z,56.03
2019-05-22T22:45:00.915Z,55.61
2019-05-22T22:47:34.642Z,55.61
2019-05-22T22:50:08.346Z,55.65
2019-05-22T22:52:42.385Z,56.33
2019-05-22T22:55:16.152Z,56.24
2019-05-22T22:57:49.858Z,56.41
2019-05-22T23:00:23.591Z,56.41
2019-05-22T23:02:57.769Z,56.61
2019-05-22T23:05:32.229Z,56.46
2019-05-22T23:08:07.556Z,56.57
2019-05-22T23:10:41.234Z,56.51
2019-05-22T23:13:14.956Z,56.43
2019-05-22T23:15:48.744Z,56.43
2019-05-22T23:18:37.260Z,56.57
2019-05-22T23:21:09.990Z,56.89
2019-05-22T23:23:42.782Z,56.89
2019-05-22T23:26:16.496Z,56.66
2019-05-22T23:28:50.201Z,56.14
2019-05-22T23:31:23.942Z,56.14
2019-05-22T23:33:57.648Z,56.94
2019-05-22T23:36:31.381Z,56.59
2019-05-22T23:39:11.189Z,56.59
2019-05-22T23:41:44.967Z,57.00
2019-05-22T23:44:18.753Z,56.71
2019-05-22T23:46:52.451Z,57.06
2019-05-22T23:49:26.144Z,57.06
2019-05-22T23:52:00.031Z,57.22
2019-05-22T23:54:33.760Z,56.33
2019-05-22T23:57:07.728Z,56.33
2019-05-22T23:59:41.451Z,56.55
